Aeroporto :
LOGIN :

Iscrizione | Disclaimer

   EN    FR    IT 

 










Sommario :    VFR   VFR Marginale   IFR   IFR Intensivo   IFR Molto Intensivo
Visibilità : 
Base nubi : 
>= 8 km
>= 3000ft
5 / 8 km
1000 / 3000 ft
1500m / 5 km
500 / 1000 ft
800 / 1500m
200 / 500 ft
< 800m
< 200 ft
Simboli :   Temporali  Nebbia  Neve Forte  Precipitazioni Forti  Vento > 20 kt
SIGMETs :   Varie  Temporali  Ghiacco  Turbolenza  Onda orograficha  Ceneri Vulcaniche







- Altitudine del aeroporto : 30 ft
- Codice IATA : CFN


EIDL - Donegal

ULTIMO METAR :
  • 240830Z 25008KT 7000 OVC005 12/12 Q1018

METARs OBSOLETI :
  • 240800Z 25009KT 3900 -DZ OVC006 12/11 Q1018
  • 240730Z 26009KT 9999 OVC007 12/11 Q1018
  • 240700Z 24005KT 9999 OVC003 12/11 Q1018

TAF TAF EIDL
Valido dal 24 a 09 ore il 24 a 18 ore UTC


240800Z 2409/2418 VRB03KT 9999 -DZ BKN007
TEMPO 2409/2411 3000 -RADZ BKN003
BECMG 2411/2414 35010KT BKN015
PROB30
TEMPO 2414/2418 BKN010
Nessun NOTAM noto per questo aeroporto.
1 SIGMET conosciuto per la FIR Shannon (EISN) :
 
Turbolenza severa
EISN SIGMET 01 VALID 240717/241000 EINN
EISN SHANNON UIR SEV TURB FCST WI N5200 W00620 - N5300 W00700 - N5300 W00530 - N5220 W00530 - N5200 W00620 FL300/370 MOV NE 10KT NC=



MetMap, La meteo Aeronautica in un colpo d'occhio ! - Copyright ORBIFLY Dicembre 2007 - Disclaimer

ORBIFLY MET'MAP TEAM :

Programmazione e sviluppo : Alexandra Zaïnal
Concezione e sviluppo : Baudouin d'Aumeries
Co-Programmazione e sviluppo : Marc-Olivier Méhu
Supporto tecnico e logistico : Manuel Goepfert
Aiuto per la traduzione : Arnaldo La Scala

Contatto : metmap@orbifly.com




FONTI E CREDITI :

   NOAA